Latest Coastal Weather Observations for Mardie

IDW60701

Issued at 6:13 am WST Saturday 21 January 2017 (issued every 10 minutes, with the page automatically refreshed every 10 minutes)

About coastal observations | Map of coastal stations | Coastal observations for WA | Marine services | Other Formats
Station Details ID: 005008 Name: MARDIE Lat: -21.19 Lon: 115.98 Height: 11.0 m
Data from the previous 72 hours. | See also: Recent months at Mardie
Date/Time
WST
Temp
°C
Wind Pressure Rain since
9am
mm
Weather Cloud Vis
km
Sea
Height
m
Swell
Dir  Spd
kts
Gust
kts
hPa Trend Height
m
Period
s
Dir
21/06:00am 25.1 WSW 6 9 1005.5 - 0.0 - - - - - - -
21/05:30am 25.2 W 8 11 1005.2 - 0.0 - - - - - - -
21/05:00am 25.2 W 7 10 1005.0 - 0.0 - - - - - - -
21/04:30am 25.2 WSW 7 9 1004.6 - 0.0 - - - - - - -
21/04:00am 25.3 W 7 10 1004.5 - 0.0 - - - - - - -
21/03:30am 25.3 W 7 10 1004.5 - 0.0 - - - - - - -
21/03:00am 25.3 W 9 13 1004.5 - 0.0 - - - - - - -
21/02:30am 25.4 W 8 14 1004.6 - 0.0 - - - - - - -
21/02:00am 25.5 W 9 13 1004.7 - 0.0 - - - - - - -
21/01:30am 25.6 W 11 14 1004.8 - 0.0 - - - - - - -
21/01:00am 25.8 W 10 15 1004.9 - 0.0 - - - - - - -
21/12:30am 25.8 W 11 15 1005.0 - 0.0 - - - - - - -
21/12:00am 25.9 W 11 16 1005.2 - 0.0 - - - - - - -
 
Date/Time
WST
Temp
°C
Wind Pressure Rain since
9am
mm
Weather Cloud Vis
km
Sea
Height
m
Swell
Dir  Spd
kts
Gust
kts
hPa Trend Height
m
Period
s
Dir
20/11:30pm 25.9 WNW 12 17 1005.4 - 0.0 - - - - - - -
20/11:00pm 26.0 WNW 13 17 1005.5 - 0.0 - - - - - - -
20/10:30pm 26.2 WNW 12 18 1005.4 - 0.0 - - - - - - -
20/10:00pm 26.2 WNW 11 17 1005.2 - 0.0 - - - - - - -
20/09:30pm 26.3 WNW 11 16 1004.9 - 0.0 - - - - - - -
20/09:00pm 26.4 WNW 12 17 1004.6 - 0.0 - - - - - - -
20/08:30pm 26.5 WNW 12 19 1004.5 - 0.0 - - - - - - -
20/08:00pm 26.8 W 15 19 1003.8 - 0.0 - - - - - - -
20/07:30pm 27.0 WNW 13 18 1003.5 - 0.0 - - - - - - -
20/07:00pm 27.4 WNW 14 19 1003.3 - 0.0 - - - - - - -
20/06:30pm 27.8 WNW 14 19 1002.7 - 0.0 - - - - - - -
20/06:00pm 28.4 WNW 14 19 1002.2 - 0.0 - - - - - - -
20/05:30pm 29.3 WNW 14 18 1001.7 - 0.0 - - - - - - -
20/05:00pm 30.2 WNW 15 19 1001.4 - 0.0 - - - - - - -
20/04:30pm 30.6 WNW 15 19 1001.2 - 0.0 - - - - - - -
20/04:00pm 30.8 WNW 15 19 1001.4 - 0.0 - - - - - - -
20/03:30pm 30.8 WNW 14 21 1001.7 - 0.0 - - - - - - -
20/03:00pm 30.6 WNW 14 20 1001.9 - 0.0 - - - - - - -
20/02:30pm 31.4 WNW 14 20 1002.1 - 0.0 - - - - - - -
20/02:00pm 31.0 WNW 12 17 1002.4 - 0.0 - - - - - - -
20/01:30pm 30.5 WNW 13 16 1002.8 - 0.0 - - - - - - -
20/01:00pm 29.9 WNW 11 14 1003.2 - 0.0 - - - - - - -
20/12:30pm 29.9 WNW 10 15 1003.6 - 0.0 - - - - - - -
20/12:00pm 30.7 WNW 9 13 1003.8 - 0.0 - - - - - - -
20/11:30am 30.4 WNW 11 17 1004.0 - 0.0 - - - - - - -
20/11:00am 29.9 WNW 9 14 1004.3 - 0.0 - - - - - - -
20/10:30am 29.3 W 8 13 1004.5 - 0.0 - - - - - - -
20/10:00am 29.4 W 8 12 1004.7 - 0.0 - - - - - - -
20/09:30am 28.4 WSW 8 13 1004.9 - 0.0 - - - - - - -
20/09:00am 27.3 WSW 9 14 1005.0 - 0.0 - - - - - - -
20/08:30am 26.2 WSW 10 14 1005.2 - 0.0 - - - - - - -
20/08:00am 25.2 WSW 13 17 1005.2 - 0.0 - - - - - - -
20/07:30am 25.0 WSW 12 17 1005.2 - 0.0 - - - - - - -
20/07:00am 23.7 WSW 9 12 1005.1 - 0.0 - - - - - - -
20/06:30am 23.0 WSW 8 11 1004.8 - 0.0 - - - - - - -
20/06:00am 22.8 WSW 9 12 1004.4 - 0.0 - - - - - - -
20/05:30am 22.9 WSW 10 13 1004.0 - 0.0 - - - - - - -
20/05:00am 23.0 WSW 11 14 1004.0 - 0.0 - - - - - - -
20/04:30am 23.1 WSW 11 16 1003.9 - 0.0 - - - - - - -
20/04:00am 23.3 WSW 12 15 1003.8 - 0.0 - - - - - - -
20/03:30am 23.5 WSW 10 14 1003.7 - 0.0 - - - - - - -
20/03:00am 23.7 WSW 12 17 1003.8 - 0.0 - - - - - - -
20/02:30am 23.8 WSW 10 15 1003.7 - 0.0 - - - - - - -
20/02:00am 24.0 WSW 11 16 1003.8 - 0.0 - - - - - - -
20/01:30am 24.1 WSW 11 17 1004.0 - 0.0 - - - - - - -
20/01:00am 24.3 WSW 12 18 1004.2 - 0.0 - - - - - - -
20/12:30am 24.6 WSW 11 17 1004.3 - 0.0 - - - - - - -
20/12:00am 24.9 WSW 12 18 1004.5 - 0.0 - - - - - - -
 
Date/Time
WST
Temp
°C
Wind Pressure Rain since
9am
mm
Weather Cloud Vis
km
Sea
Height
m
Swell
Dir  Spd
kts
Gust
kts
hPa Trend Height
m
Period
s
Dir
19/11:30pm 25.2 WSW 13 18 1004.8 - 0.0 - - - - - - -
19/11:00pm 25.7 WSW 12 17 1004.8 - 0.0 - - - - - - -
19/10:30pm 26.2 W 15 20 1004.6 - 0.0 - - - - - - -
19/10:00pm 26.6 W 14 21 1004.7 - 0.0 - - - - - - -
19/09:30pm 26.9 W 13 19 1004.5 - 0.0 - - - - - - -
19/09:00pm 27.1 W 14 19 1004.4 - 0.0 - - - - - - -
19/08:30pm 27.3 W 13 19 1004.1 - 0.0 - - - - - - -
19/08:00pm 27.2 W 16 24 1003.9 - 0.0 - - - - - - -
19/07:30pm 27.3 W 15 21 1003.7 - 0.0 - - - - - - -
19/07:00pm 27.5 W 15 21 1003.5 - 0.0 - - - - - - -
19/06:30pm 27.7 W 16 21 1003.3 - 0.0 - - - - - - -
19/06:00pm 28.2 W 17 24 1002.8 - 0.0 - - - - - - -
19/05:30pm 28.8 W 18 25 1002.5 - 0.0 - - - - - - -
19/05:00pm 29.4 W 17 24 1002.6 - 0.0 - - - - - - -
19/04:30pm 30.5 W 19 26 1002.6 - 0.0 - - - - - - -
19/04:00pm 30.6 W 18 26 1002.9 - 0.0 - - - - - - -
19/03:48pm 30.4 W 16 27 1003.2 - 0.0 - - - - - - -
19/03:30pm 30.4 W 17 23 1003.4 - 0.0 - - - - - - -
19/03:00pm 29.9 WNW 17 23 1003.6 - 0.0 - - - - - - -
19/02:30pm 29.9 WNW 18 24 1003.9 - 0.0 - - - - - - -
19/02:00pm 30.0 WNW 17 24 1004.4 - 0.0 - - - - - - -
19/01:30pm 30.7 WNW 17 24 1004.7 - 0.0 - - - - - - -
19/01:00pm 31.0 W 17 23 1005.1 - 0.0 - - - - - - -
19/12:30pm 30.2 WNW 18 24 1005.3 - 0.0 - - - - - - -
19/12:00pm 29.5 WNW 16 22 1005.7 - 0.0 - - - - - - -
19/11:30am 29.8 W 12 17 1006.2 - 0.0 - - - - - - -
19/11:00am 30.5 WSW 10 15 1006.6 - 0.0 - - - - - - -
19/10:30am 28.9 WSW 11 18 1007.0 - 0.0 - - - - - - -
19/10:00am 27.8 WSW 11 17 1007.2 - 0.0 - - - - - - -
19/09:30am 27.1 WSW 13 20 1007.5 - 0.0 - - - - - - -
19/09:00am 26.6 SW 13 19 1007.7 - 0.0 - - - - - - -
19/08:30am 25.4 SW 12 18 1007.9 - 0.0 - - - - - - -
19/08:00am 24.5 SW 13 18 1008.1 - 0.0 - - - - - - -
19/07:30am 23.5 SW 12 16 1007.9 - 0.0 - - - - - - -
19/07:00am 22.7 SW 11 15 1007.5 - 0.0 - - - - - - -
19/06:30am 21.9 SW 10 13 1007.2 - 0.0 - - - - - - -
19/06:00am 22.1 SW 9 15 1006.8 - 0.0 - - - - - - -
19/05:30am 22.3 SW 10 14 1006.3 - 0.0 - - - - - - -
19/05:00am 22.6 SW 10 15 1006.0 - 0.0 - - - - - - -
19/04:30am 23.0 SW 11 15 1005.8 - 0.0 - - - - - - -
19/04:00am 23.1 SW 9 13 1005.6 - 0.0 - - - - - - -
19/03:30am 23.2 SW 9 13 1005.5 - 0.0 - - - - - - -
19/03:00am 23.4 WSW 10 14 1005.5 - 0.0 - - - - - - -
19/02:30am 23.6 WSW 10 14 1005.5 - 0.0 - - - - - - -
19/02:00am 23.7 WSW 10 14 1005.6 - 0.0 - - - - - - -
19/01:30am 23.9 WSW 10 15 1005.9 - 0.0 - - - - - - -
19/01:00am 24.2 WSW 11 15 1006.0 - 0.0 - - - - - - -
19/12:30am 24.8 W 13 17 1006.1 - 0.0 - - - - - - -
19/12:00am 25.3 WSW 13 17 1006.5 - 0.0 - - - - - - -
 
Date/Time
WST
Temp
°C
Wind Pressure Rain since
9am
mm
Weather Cloud Vis
km
Sea
Height
m
Swell
Dir  Spd
kts
Gust
kts
hPa Trend Height
m
Period
s
Dir
18/11:30pm 25.8 WSW 12 19 1006.8 - 0.0 - - - - - - -
18/11:00pm 26.1 WSW 14 20 1006.8 - 0.0 - - - - - - -
18/10:30pm 26.4 WSW 12 17 1006.8 - 0.0 - - - - - - -
18/10:00pm 26.6 WSW 12 17 1006.8 - 0.0 - - - - - - -
18/09:30pm 27.3 WSW 13 19 1006.6 - 0.0 - - - - - - -
18/09:00pm 27.6 W 12 17 1006.6 - 0.0 - - - - - - -
18/08:30pm 27.5 W 14 21 1006.5 - 0.0 - - - - - - -
18/08:00pm 27.5 W 14 20 1006.2 - 0.0 - - - - - - -
18/07:30pm 27.6 W 17 24 1005.8 - 0.0 - - - - - - -
18/07:00pm 27.8 W 16 24 1005.2 - 0.0 - - - - - - -
18/06:30pm 28.2 W 17 25 1004.9 - 0.0 - - - - - - -
18/06:00pm 28.5 W 17 25 1004.4 - 0.0 - - - - - - -
18/05:30pm 28.9 W 18 24 1004.2 - 0.0 - - - - - - -
18/05:00pm 29.2 WNW 17 24 1003.9 - 0.0 - - - - - - -
18/04:30pm 29.1 W 19 26 1003.5 - 0.0 - - - - - - -
18/04:00pm 29.1 W 19 25 1003.7 - 0.0 - - - - - - -
18/03:30pm 29.4 WNW 18 23 1004.0 - 0.0 - - - - - - -
18/03:00pm 29.9 WNW 18 24 1004.3 - 0.0 - - - - - - -
18/02:30pm 30.0 WNW 18 23 1004.6 - 0.0 - - - - - - -
18/02:00pm 30.7 WNW 16 21 1004.9 - 0.0 - - - - - - -
18/01:30pm 29.9 WNW 16 21 1005.2 - 0.0 - - - - - - -
18/01:00pm 31.0 WNW 13 20 1005.5 - 0.0 - - - - - - -
18/12:30pm 30.3 WNW 12 17 1005.7 - 0.0 - - - - - - -
18/12:00pm 30.7 WNW 11 13 1006.0 - 0.0 - - - - - - -
18/11:30am 31.0 WNW 11 15 1006.2 - 0.0 - - - - - - -
18/11:00am 30.7 WNW 10 14 1006.4 - 0.0 - - - - - - -
18/10:30am 31.0 W 7 12 1006.7 - 0.0 - - - - - - -
18/10:00am 30.4 SW 6 10 1007.0 - 0.0 - - - - - - -
18/09:30am 29.7 SW 4 8 1007.1 - 0.0 - - - - - - -
18/09:00am 28.8 SSW 6 9 1007.0 - 0.0 - - - - - - -
18/08:30am 27.9 SW 7 10 1007.1 - 0.0 - - - - - - -
18/08:00am 27.2 SW 7 11 1007.0 - 0.0 - - - - - - -
18/07:30am 26.4 SW 9 12 1007.1 - 0.0 - - - - - - -
18/07:00am 26.1 SW 8 12 1006.7 - 0.0 - - - - - - -
18/06:30am 25.6 WSW 6 9 1006.4 - 0.0 - - - - - - -

Other Formats:

Comma delimited format used in spreadsheet applications
http://www.bom.gov.au/fwo/IDW60701/IDW60701.94306.axf

JavaScript Object Notation format (JSON) in row-major order
http://www.bom.gov.au/fwo/IDW60701/IDW60701.94306.json